createdAt,value
2019-06-26T00:00:27.951Z,20.73
2019-06-26T00:02:59.590Z,20.86
2019-06-26T00:05:31.160Z,21.01
2019-06-26T00:08:02.704Z,20.93
2019-06-26T00:10:33.979Z,20.87
2019-06-26T00:13:05.618Z,20.93
2019-06-26T00:15:37.264Z,20.87
2019-06-26T00:18:08.978Z,20.76
2019-06-26T00:20:40.865Z,20.63
2019-06-26T00:23:12.406Z,20.56
2019-06-26T00:25:43.769Z,20.59
2019-06-26T00:28:15.202Z,20.65
2019-06-26T00:30:46.802Z,20.56
2019-06-26T00:33:18.231Z,20.53
2019-06-26T00:35:49.712Z,20.48
2019-06-26T00:38:21.177Z,20.45
2019-06-26T00:40:53.135Z,20.44
2019-06-26T00:43:24.528Z,20.48
2019-06-26T00:45:55.931Z,20.52
2019-06-26T00:48:27.410Z,20.50
2019-06-26T00:50:58.883Z,20.49
2019-06-26T00:53:30.226Z,20.48
2019-06-26T00:56:02.030Z,20.51
2019-06-26T00:58:33.508Z,20.42
2019-06-26T01:01:04.948Z,20.29
2019-06-26T01:03:36.407Z,20.37
2019-06-26T01:06:10.333Z,20.44
2019-06-26T01:08:41.871Z,20.53
2019-06-26T01:11:14.278Z,20.56
2019-06-26T01:13:57.644Z,20.54
2019-06-26T01:16:18.862Z,20.55
2019-06-26T01:18:50.271Z,20.50
2019-06-26T01:21:21.771Z,20.48
2019-06-26T01:23:53.057Z,20.44
2019-06-26T01:26:24.680Z,20.51
2019-06-26T01:28:56.214Z,20.61
2019-06-26T01:31:28.067Z,20.64
2019-06-26T01:33:59.662Z,20.65
2019-06-26T01:36:31.096Z,20.51
2019-06-26T01:39:02.445Z,20.43
2019-06-26T01:41:35.735Z,20.36
2019-06-26T01:44:14.589Z,20.27
2019-06-26T01:46:41.069Z,20.15
2019-06-26T01:49:12.781Z,20.07
2019-06-26T01:51:44.210Z,20.02
2019-06-26T01:54:15.707Z,19.89
2019-06-26T01:56:46.976Z,19.84
2019-06-26T01:59:18.318Z,19.89
2019-06-26T02:01:49.755Z,19.98
2019-06-26T02:04:21.243Z,20.00
2019-06-26T02:06:52.547Z,20.00
2019-06-26T02:09:23.980Z,20.02
2019-06-26T02:11:55.745Z,20.00
2019-06-26T02:14:31.369Z,19.94
2019-06-26T02:17:00.818Z,19.84
2019-06-26T02:19:32.387Z,19.79
2019-06-26T02:22:03.894Z,19.68
2019-06-26T02:24:35.415Z,19.62
2019-06-26T02:27:06.895Z,19.58
2019-06-26T02:29:38.990Z,19.50
2019-06-26T02:32:10.318Z,19.49
2019-06-26T02:34:41.661Z,19.52
2019-06-26T02:37:13.156Z,19.53
2019-06-26T02:39:44.601Z,19.60
2019-06-26T02:42:16.116Z,19.64
2019-06-26T02:44:53.656Z,19.58
2019-06-26T02:47:21.110Z,19.47
2019-06-26T02:49:53.072Z,19.30
2019-06-26T02:52:24.556Z,19.18
2019-06-26T02:54:56.177Z,19.00
2019-06-26T02:57:27.574Z,18.93
2019-06-26T02:59:58.972Z,18.85
2019-06-26T03:02:30.459Z,18.76
2019-06-26T03:05:02.204Z,18.71
2019-06-26T03:07:34.042Z,18.68
2019-06-26T03:10:08.233Z,18.66
2019-06-26T03:12:44.666Z,18.62
2019-06-26T03:15:17.298Z,18.53
2019-06-26T03:17:55.524Z,18.44
2019-06-26T03:20:26.204Z,18.34
2019-06-26T03:22:58.404Z,18.33
2019-06-26T03:25:29.837Z,18.35
2019-06-26T03:28:01.294Z,18.34
2019-06-26T03:30:32.843Z,18.29
2019-06-26T03:33:04.250Z,18.25
2019-06-26T03:35:36.562Z,18.29
2019-06-26T03:38:08.051Z,18.31
2019-06-26T03:40:39.435Z,18.32
2019-06-26T03:43:10.840Z,18.43
2019-06-26T03:45:42.234Z,18.47
2019-06-26T03:48:13.652Z,18.44
2019-06-26T03:50:45.340Z,18.43
2019-06-26T03:53:16.737Z,18.45
2019-06-26T03:55:48.631Z,18.49
2019-06-26T03:58:20.067Z,18.55
2019-06-26T04:00:54.644Z,18.61
2019-06-26T04:03:24.752Z,18.69
2019-06-26T04:05:56.232Z,18.79
2019-06-26T04:08:27.633Z,18.90
2019-06-26T04:10:59.059Z,18.96
2019-06-26T04:13:30.458Z,19.05
2019-06-26T04:16:01.985Z,19.14
2019-06-26T04:18:33.380Z,19.15
2019-06-26T04:21:04.870Z,19.18
2019-06-26T04:23:36.654Z,19.27
2019-06-26T04:26:08.128Z,19.34
2019-06-26T04:28:39.567Z,19.48
2019-06-26T04:31:11.091Z,19.64
2019-06-26T04:33:42.430Z,19.77
2019-06-26T04:36:13.939Z,19.87
2019-06-26T04:38:45.373Z,19.96
2019-06-26T04:41:16.693Z,20.04
2019-06-26T04:43:48.588Z,20.11
2019-06-26T04:46:20.341Z,20.18
2019-06-26T04:48:51.697Z,20.21
2019-06-26T04:51:23.254Z,20.27
2019-06-26T04:53:55.871Z,20.33
2019-06-26T04:56:27.449Z,20.45
2019-06-26T04:58:58.818Z,20.59
2019-06-26T05:01:30.368Z,20.75
2019-06-26T05:04:01.802Z,20.84
2019-06-26T05:06:33.335Z,21.04
2019-06-26T05:09:06.345Z,21.28
2019-06-26T05:11:38.178Z,21.49
2019-06-26T05:14:09.558Z,21.54
2019-06-26T05:16:41.022Z,21.62
2019-06-26T05:19:13.416Z,21.73
2019-06-26T05:21:44.951Z,21.85
2019-06-26T05:24:16.433Z,21.98
2019-06-26T05:26:47.821Z,22.12
2019-06-26T05:29:19.289Z,22.24
2019-06-26T05:31:50.607Z,22.42
2019-06-26T05:34:21.999Z,22.53
2019-06-26T05:36:53.467Z,22.63
2019-06-26T05:39:24.986Z,22.77
2019-06-26T05:41:56.467Z,22.90
2019-06-26T05:44:27.790Z,23.08
2019-06-26T05:46:59.556Z,23.24
2019-06-26T05:49:30.965Z,23.23
2019-06-26T05:52:02.366Z,23.37
2019-06-26T05:54:34.030Z,23.44
2019-06-26T05:57:05.503Z,23.22
2019-06-26T05:59:36.833Z,23.28
2019-06-26T06:02:08.712Z,23.35
2019-06-26T06:04:40.293Z,23.55
2019-06-26T06:07:11.738Z,23.81
2019-06-26T06:09:43.205Z,24.06
2019-06-26T06:12:14.601Z,24.39
2019-06-26T06:14:45.910Z,24.49
2019-06-26T06:17:17.202Z,24.83
2019-06-26T06:19:48.918Z,25.05
2019-06-26T06:22:21.285Z,25.36
2019-06-26T06:24:52.684Z,25.59
2019-06-26T06:27:23.968Z,25.91
2019-06-26T06:29:55.214Z,26.19
2019-06-26T06:32:26.638Z,26.39
2019-06-26T06:34:57.959Z,26.65
2019-06-26T06:37:29.350Z,26.90
2019-06-26T06:40:00.932Z,27.23
2019-06-26T06:42:32.409Z,27.41
2019-06-26T06:45:03.930Z,27.48
2019-06-26T06:47:35.317Z,27.77
2019-06-26T06:50:07.217Z,27.73
2019-06-26T06:52:39.096Z,27.71
2019-06-26T06:55:11.403Z,27.88
2019-06-26T06:57:42.784Z,28.17
2019-06-26T07:00:14.855Z,28.40
2019-06-26T07:02:46.284Z,28.60
2019-06-26T07:05:17.750Z,28.55
2019-06-26T07:07:49.159Z,28.36
2019-06-26T07:10:20.911Z,28.80
2019-06-26T07:12:52.384Z,29.15
2019-06-26T07:15:24.292Z,29.28
2019-06-26T07:17:55.898Z,29.29
2019-06-26T07:20:27.154Z,29.28
2019-06-26T07:22:58.579Z,29.00
2019-06-26T07:25:30.208Z,29.35
2019-06-26T07:28:02.114Z,29.46
2019-06-26T07:30:34.919Z,29.52
2019-06-26T07:33:06.788Z,29.61
2019-06-26T07:35:38.239Z,29.88
2019-06-26T07:38:09.707Z,30.09
2019-06-26T07:40:41.100Z,30.22
2019-06-26T07:43:16.275Z,30.43
2019-06-26T07:45:45.771Z,30.42
2019-06-26T07:48:17.282Z,30.69
2019-06-26T07:50:48.649Z,30.97
2019-06-26T07:53:20.067Z,31.07
2019-06-26T07:55:51.511Z,30.98
2019-06-26T07:58:22.888Z,31.51
2019-06-26T08:00:54.636Z,31.75
2019-06-26T08:03:25.942Z,32.07
2019-06-26T08:05:57.330Z,32.41
2019-06-26T08:08:29.036Z,32.02
2019-06-26T08:11:00.399Z,31.94
2019-06-26T08:13:31.710Z,32.14
2019-06-26T08:16:03.139Z,32.29
2019-06-26T08:18:34.526Z,32.65
2019-06-26T08:21:12.450Z,32.79
2019-06-26T08:23:38.912Z,32.74
2019-06-26T08:26:10.213Z,32.59
2019-06-26T08:28:41.697Z,32.76
2019-06-26T08:31:13.223Z,32.62
2019-06-26T08:33:45.492Z,32.86
2019-06-26T08:36:17.199Z,32.65
2019-06-26T08:38:48.505Z,33.33
2019-06-26T08:41:19.730Z,32.87
2019-06-26T08:43:50.986Z,33.08
2019-06-26T08:46:23.330Z,33.68
2019-06-26T08:48:54.774Z,33.36
2019-06-26T08:51:26.314Z,33.25
2019-06-26T08:53:57.777Z,33.46
2019-06-26T08:56:29.125Z,33.45
2019-06-26T08:59:00.414Z,33.82
2019-06-26T09:01:31.759Z,34.06
2019-06-26T09:04:03.182Z,34.38
2019-06-26T09:06:34.551Z,34.37
2019-06-26T09:09:08.330Z,34.35
2019-06-26T09:11:39.886Z,34.53
2019-06-26T09:14:11.180Z,34.23
2019-06-26T09:17:10.921Z,34.70
2019-06-26T09:19:44.032Z,34.27
2019-06-26T09:22:15.644Z,34.38
2019-06-26T09:24:47.464Z,34.78
2019-06-26T09:27:19.573Z,34.87
2019-06-26T09:29:51.144Z,35.25
2019-06-26T09:32:22.545Z,35.58
2019-06-26T09:34:53.939Z,35.71
2019-06-26T09:37:25.605Z,35.78
2019-06-26T09:39:56.980Z,36.54
2019-06-26T09:42:28.365Z,36.40
2019-06-26T09:44:59.822Z,36.38
2019-06-26T09:47:32.285Z,36.80
2019-06-26T09:50:03.729Z,36.68
2019-06-26T09:52:35.147Z,36.43
2019-06-26T09:55:07.275Z,36.61
2019-06-26T09:57:39.948Z,36.34
2019-06-26T10:00:13.701Z,36.58
2019-06-26T10:02:45.237Z,36.63
2019-06-26T10:05:18.013Z,36.35
2019-06-26T10:07:49.342Z,36.56
2019-06-26T10:10:21.422Z,36.47
2019-06-26T10:12:53.008Z,36.59
2019-06-26T10:15:24.772Z,37.14
2019-06-26T10:17:56.093Z,37.28
2019-06-26T10:20:27.649Z,37.18
2019-06-26T10:22:58.968Z,37.09
2019-06-26T10:25:30.625Z,36.75
2019-06-26T10:28:02.584Z,36.36
2019-06-26T10:30:34.081Z,36.81
2019-06-26T10:33:05.637Z,37.16
2019-06-26T10:35:37.013Z,37.21
2019-06-26T10:38:08.613Z,37.55
2019-06-26T10:40:40.014Z,37.83
2019-06-26T10:43:11.533Z,36.49
2019-06-26T10:45:42.922Z,36.46
2019-06-26T10:48:14.378Z,37.30
2019-06-26T10:50:51.889Z,37.62
2019-06-26T10:53:18.855Z,37.72
2019-06-26T10:55:50.264Z,37.67
2019-06-26T10:58:21.678Z,38.61
2019-06-26T11:00:54.902Z,37.81
2019-06-26T11:03:26.231Z,38.16
2019-06-26T11:05:57.730Z,38.20
2019-06-26T11:08:30.318Z,37.65
2019-06-26T11:11:01.784Z,37.79
2019-06-26T11:13:33.366Z,37.93
2019-06-26T11:16:05.080Z,37.13
2019-06-26T11:18:36.613Z,37.47
2019-06-26T11:21:08.534Z,37.39
2019-06-26T11:23:39.946Z,37.38
2019-06-26T11:26:11.320Z,37.54
2019-06-26T11:28:43.027Z,38.32
2019-06-26T11:31:14.511Z,39.12
2019-06-26T11:33:45.971Z,39.01
2019-06-26T11:36:17.382Z,38.94
2019-06-26T11:38:48.793Z,38.95
2019-06-26T11:41:21.297Z,39.39
2019-06-26T11:43:52.737Z,38.02
2019-06-26T11:46:24.551Z,37.92
2019-06-26T11:48:55.849Z,37.82
2019-06-26T11:51:28.731Z,38.28
2019-06-26T11:54:00.131Z,39.02
2019-06-26T11:56:32.088Z,39.46
2019-06-26T11:59:03.588Z,39.38
2019-06-26T12:01:35.006Z,38.90
2019-06-26T12:04:07.367Z,39.37
2019-06-26T12:06:38.766Z,39.20
2019-06-26T12:09:11.215Z,39.47
2019-06-26T12:11:42.448Z,39.75
2019-06-26T12:14:14.147Z,38.79
2019-06-26T12:16:45.629Z,39.14
2019-06-26T12:19:19.915Z,39.73
2019-06-26T12:21:50.430Z,40.08
2019-06-26T12:24:21.760Z,39.76
2019-06-26T12:26:53.154Z,40.12
2019-06-26T12:29:24.531Z,39.00
2019-06-26T12:31:56.200Z,38.55
2019-06-26T12:34:27.511Z,39.51
2019-06-26T12:36:58.859Z,40.14
2019-06-26T12:39:30.417Z,39.96
2019-06-26T12:42:01.830Z,39.93
2019-06-26T12:44:33.307Z,40.30
2019-06-26T12:47:04.816Z,39.60
2019-06-26T12:49:36.274Z,40.31
2019-06-26T12:52:07.954Z,38.88
2019-06-26T12:54:40.230Z,39.04
2019-06-26T12:57:11.637Z,38.90
2019-06-26T12:59:56.719Z,39.55
2019-06-26T13:02:16.144Z,39.26
2019-06-26T13:04:47.448Z,39.02
2019-06-26T13:07:18.832Z,38.04
2019-06-26T13:09:50.244Z,37.89
2019-06-26T13:12:21.740Z,38.97
2019-06-26T13:14:53.053Z,39.26
2019-06-26T13:17:24.407Z,39.50
2019-06-26T13:19:55.703Z,39.57
2019-06-26T13:22:26.977Z,40.10
2019-06-26T13:24:58.283Z,39.37
2019-06-26T13:27:29.634Z,39.00
2019-06-26T13:30:01.198Z,39.35
2019-06-26T13:32:32.585Z,38.97
2019-06-26T13:35:04.349Z,39.11
2019-06-26T13:37:35.824Z,39.40
2019-06-26T13:40:08.166Z,39.01
2019-06-26T13:42:39.491Z,39.76
2019-06-26T13:45:11.615Z,39.17
2019-06-26T13:47:42.874Z,38.76
2019-06-26T13:50:15.273Z,38.50
2019-06-26T13:52:46.717Z,38.40
2019-06-26T13:55:18.871Z,38.44
2019-06-26T13:57:50.221Z,38.00
2019-06-26T14:00:23.541Z,38.40
2019-06-26T14:02:55.029Z,38.46
2019-06-26T14:05:29.376Z,38.65
2019-06-26T14:07:59.480Z,38.52
2019-06-26T14:10:30.910Z,38.57
2019-06-26T14:13:02.237Z,37.87
2019-06-26T14:15:34.001Z,37.69
2019-06-26T14:18:05.801Z,38.31
2019-06-26T14:20:37.185Z,38.77
2019-06-26T14:23:08.606Z,37.50
2019-06-26T14:25:40.011Z,37.73
2019-06-26T14:28:11.350Z,37.79
2019-06-26T14:30:44.398Z,38.21
2019-06-26T14:33:15.676Z,38.14
2019-06-26T14:35:47.205Z,38.02
2019-06-26T14:38:18.574Z,37.44
2019-06-26T14:40:49.890Z,38.07
2019-06-26T14:43:21.166Z,38.17
2019-06-26T14:45:52.634Z,38.12
2019-06-26T14:48:24.526Z,38.38
2019-06-26T14:50:55.820Z,37.84
2019-06-26T14:53:27.109Z,37.72
2019-06-26T14:55:58.492Z,37.51
2019-06-26T14:58:29.703Z,37.32
2019-06-26T15:01:01.197Z,37.62
2019-06-26T15:03:32.626Z,38.26
2019-06-26T15:06:15.928Z,38.53
2019-06-26T15:08:37.890Z,38.24
2019-06-26T15:11:09.905Z,37.19
2019-06-26T15:13:41.245Z,36.96
2019-06-26T15:16:12.607Z,37.60
2019-06-26T15:18:44.044Z,38.16
2019-06-26T15:21:15.338Z,37.87
2019-06-26T15:23:46.653Z,37.64
2019-06-26T15:26:18.217Z,37.40
2019-06-26T15:28:49.583Z,37.66
2019-06-26T15:31:20.991Z,37.99
2019-06-26T15:33:52.402Z,37.45
2019-06-26T15:36:23.670Z,37.52
2019-06-26T15:38:58.263Z,36.94
2019-06-26T15:41:28.564Z,36.83
2019-06-26T15:43:59.927Z,37.33
2019-06-26T15:46:31.433Z,36.91
2019-06-26T15:49:02.766Z,36.50
2019-06-26T15:51:34.185Z,36.84
2019-06-26T15:54:06.069Z,37.03
2019-06-26T15:56:37.437Z,36.96
2019-06-26T15:59:08.855Z,36.79
2019-06-26T16:01:40.298Z,36.67
2019-06-26T16:04:11.773Z,36.79
2019-06-26T16:06:43.088Z,36.90
2019-06-26T16:09:14.504Z,37.04
2019-06-26T16:11:45.824Z,36.94
2019-06-26T16:14:17.107Z,36.98
2019-06-26T16:16:50.210Z,36.52
2019-06-26T16:19:22.751Z,36.64
2019-06-26T16:21:54.184Z,36.41
2019-06-26T16:24:25.525Z,36.13
2019-06-26T16:26:56.847Z,36.22
2019-06-26T16:29:28.300Z,36.02
2019-06-26T16:31:59.680Z,36.06
2019-06-26T16:34:31.012Z,36.09
2019-06-26T16:37:02.683Z,36.08
2019-06-26T16:39:34.581Z,36.32
2019-06-26T16:42:06.362Z,36.41
2019-06-26T16:44:37.715Z,35.97
2019-06-26T16:47:09.112Z,35.97
2019-06-26T16:49:40.529Z,36.07
2019-06-26T16:52:11.893Z,35.84
2019-06-26T16:54:43.262Z,35.83
2019-06-26T16:57:14.728Z,35.94
2019-06-26T16:59:45.999Z,35.79
2019-06-26T17:02:17.297Z,35.75
2019-06-26T17:04:48.663Z,35.63
2019-06-26T17:07:20.065Z,35.53
2019-06-26T17:09:51.780Z,35.67
2019-06-26T17:12:23.365Z,35.43
2019-06-26T17:14:54.871Z,35.44
2019-06-26T17:17:26.314Z,35.42
2019-06-26T17:19:58.733Z,35.21
2019-06-26T17:22:30.347Z,35.30
2019-06-26T17:25:01.990Z,35.07
2019-06-26T17:27:33.724Z,34.93
2019-06-26T17:30:06.467Z,34.86
2019-06-26T17:32:38.024Z,35.02
2019-06-26T17:35:09.728Z,35.09
2019-06-26T17:37:41.215Z,34.79
2019-06-26T17:40:12.986Z,34.75
2019-06-26T17:42:45.070Z,34.55
2019-06-26T17:45:16.820Z,34.60
2019-06-26T17:47:48.500Z,34.64
2019-06-26T17:50:20.077Z,34.64
2019-06-26T17:52:51.827Z,34.58
2019-06-26T17:55:23.570Z,34.53
2019-06-26T17:57:55.490Z,34.51
2019-06-26T18:00:47.656Z,34.32
2019-06-26T18:03:19.103Z,34.29
2019-06-26T18:05:50.954Z,34.13
2019-06-26T18:08:22.401Z,34.08
2019-06-26T18:10:53.965Z,34.10
2019-06-26T18:13:25.551Z,33.99
2019-06-26T18:15:56.879Z,33.84
2019-06-26T18:18:28.216Z,33.78
2019-06-26T18:20:59.558Z,33.63
2019-06-26T18:23:37.896Z,33.64
2019-06-26T18:26:12.860Z,33.61
2019-06-26T18:28:37.633Z,33.45
2019-06-26T18:31:09.071Z,33.31
2019-06-26T18:33:44.043Z,33.24
2019-06-26T18:36:13.619Z,33.16
2019-06-26T18:38:45.036Z,33.15
2019-06-26T18:41:18.526Z,33.04
2019-06-26T18:43:49.395Z,32.85
2019-06-26T18:46:20.733Z,32.65
2019-06-26T18:48:51.974Z,32.02
2019-06-26T18:51:23.483Z,31.24
2019-06-26T18:53:55.357Z,30.66
2019-06-26T18:56:26.668Z,30.04
2019-06-26T18:58:57.959Z,29.64
2019-06-26T19:01:29.716Z,29.13
2019-06-26T19:04:01.033Z,28.87
2019-06-26T19:06:32.279Z,28.68
2019-06-26T19:09:05.328Z,28.66
2019-06-26T19:11:39.272Z,28.48
2019-06-26T19:14:10.647Z,28.05
2019-06-26T19:16:42.432Z,27.83
2019-06-26T19:19:13.764Z,27.72
2019-06-26T19:21:45.086Z,27.56
2019-06-26T19:24:16.484Z,27.51
2019-06-26T19:26:47.973Z,27.43
2019-06-26T19:29:19.267Z,27.39
2019-06-26T19:31:50.786Z,27.32
2019-06-26T19:34:22.247Z,27.30
2019-06-26T19:36:53.619Z,27.28
2019-06-26T19:39:24.938Z,27.22
2019-06-26T19:41:56.418Z,27.14
2019-06-26T19:44:27.740Z,26.94
2019-06-26T19:46:59.131Z,26.80
2019-06-26T19:49:30.765Z,26.64
2019-06-26T19:52:02.126Z,26.51
2019-06-26T19:54:33.437Z,26.49
2019-06-26T19:57:04.935Z,26.54
2019-06-26T19:59:36.306Z,26.48
2019-06-26T20:02:08.311Z,26.43
2019-06-26T20:04:39.982Z,26.38
2019-06-26T20:07:11.435Z,26.18
2019-06-26T20:09:43.064Z,26.05
2019-06-26T20:12:14.810Z,25.97
2019-06-26T20:14:46.178Z,25.78
2019-06-26T20:17:18.502Z,25.86
2019-06-26T20:19:49.799Z,25.66
2019-06-26T20:22:21.260Z,25.47
2019-06-26T20:24:52.695Z,25.49
2019-06-26T20:27:24.035Z,25.56
2019-06-26T20:29:55.731Z,25.58
2019-06-26T20:32:27.161Z,25.45
2019-06-26T20:34:58.529Z,25.31
2019-06-26T20:37:29.929Z,25.17
2019-06-26T20:40:01.560Z,25.12
2019-06-26T20:42:33.221Z,25.13
2019-06-26T20:45:05.017Z,25.13
2019-06-26T20:47:36.314Z,25.28
2019-06-26T20:50:09.713Z,25.54
2019-06-26T20:52:41.085Z,25.79
2019-06-26T20:55:12.499Z,25.82
2019-06-26T20:57:43.765Z,25.64
2019-06-26T21:00:15.267Z,25.42
2019-06-26T21:02:46.641Z,25.24
2019-06-26T21:05:18.056Z,25.06
2019-06-26T21:07:49.534Z,24.96
2019-06-26T21:10:21.208Z,24.84
2019-06-26T21:12:52.495Z,24.70
2019-06-26T21:15:23.758Z,24.60
2019-06-26T21:17:55.123Z,24.45
2019-06-26T21:20:26.449Z,24.44
2019-06-26T21:22:58.083Z,24.40
2019-06-26T21:25:29.841Z,24.38
2019-06-26T21:28:01.397Z,24.40
2019-06-26T21:30:32.860Z,24.42
2019-06-26T21:33:04.385Z,24.37
2019-06-26T21:35:35.964Z,24.32
2019-06-26T21:38:07.314Z,24.27
2019-06-26T21:40:38.702Z,24.17
2019-06-26T21:43:09.930Z,24.06
2019-06-26T21:45:41.395Z,24.05
2019-06-26T21:48:12.850Z,24.02
2019-06-26T21:50:44.202Z,24.00
2019-06-26T21:53:15.518Z,24.01
2019-06-26T21:56:05.025Z,24.03
2019-06-26T21:58:54.041Z,24.07
2019-06-26T22:01:43.741Z,24.15
2019-06-26T22:04:32.491Z,24.27
2019-06-26T22:07:07.086Z,24.36
2019-06-26T22:09:40.455Z,24.33
2019-06-26T22:12:12.623Z,24.41
2019-06-26T22:14:45.353Z,24.54
2019-06-26T22:17:16.886Z,24.67
2019-06-26T22:19:48.431Z,24.74
2019-06-26T22:22:19.990Z,24.96
2019-06-26T22:24:51.976Z,25.18
2019-06-26T22:27:23.297Z,25.12
2019-06-26T22:29:54.701Z,24.51
2019-06-26T22:32:26.321Z,23.93
2019-06-26T22:34:57.961Z,23.59
2019-06-26T22:37:30.239Z,23.42
2019-06-26T22:40:01.612Z,23.45
2019-06-26T22:42:33.686Z,23.39
2019-06-26T22:45:05.509Z,23.58
2019-06-26T22:47:36.996Z,23.46
2019-06-26T22:50:09.555Z,23.42
2019-06-26T22:52:41.335Z,23.48
2019-06-26T22:55:13.705Z,23.50
2019-06-26T22:57:45.091Z,23.22
2019-06-26T23:00:17.142Z,23.01
2019-06-26T23:02:48.534Z,22.61
2019-06-26T23:05:19.889Z,22.44
2019-06-26T23:07:51.575Z,22.20
2019-06-26T23:10:22.951Z,22.05
2019-06-26T23:12:54.342Z,21.96
2019-06-26T23:15:25.828Z,21.97
2019-06-26T23:17:57.509Z,21.92
2019-06-26T23:20:28.939Z,21.86
2019-06-26T23:23:00.415Z,21.83
2019-06-26T23:25:32.132Z,21.79
2019-06-26T23:28:03.533Z,21.74
2019-06-26T23:30:34.793Z,21.75
2019-06-26T23:33:06.398Z,21.70
2019-06-26T23:35:37.631Z,21.72
2019-06-26T23:38:09.040Z,21.69
2019-06-26T23:40:40.525Z,21.63
2019-06-26T23:43:11.957Z,21.59
2019-06-26T23:45:43.675Z,21.58
2019-06-26T23:48:14.917Z,21.53
2019-06-26T23:50:47.493Z,21.55
2019-06-26T23:53:18.734Z,21.53
2019-06-26T23:55:50.228Z,21.46
2019-06-26T23:58:21.619Z,21.48
